Time;durP1;ratioP1;P1;durP2;ratioP2;P2;SDS_P1;SDS_P2;PMS_P1;PMS_P2;Temp;Humidity;BMP_temperature;BMP_pressure;BME280_temperature;BME280_humidity;BME280_pressure;Samples;Min_cycle;Max_cycle;Signal;HPM_P1;HPM_P2
2022/10/07 00:02:39;;;;;;;0.20;0.00;;;18.20;99.90;;;;;;21265322;28;20235;-70
2022/10/07 00:12:43;;;;;;;0.20;0.00;;;18.30;99.90;;;;;;21246941;28;20246;-70
2022/10/07 00:22:48;;;;;;;0.20;0.10;;;18.20;99.90;;;;;;21263939;28;20221;-71
2022/10/07 00:32:52;;;;;;;0.20;0.00;;;18.10;99.90;;;;;;21247231;28;20200;-70
2022/10/07 00:42:58;;;;;;;0.20;0.00;;;18.10;99.90;;;;;;21177504;28;20227;-71
2022/10/07 00:53:03;;;;;;;0.20;0.10;;;17.90;99.90;;;;;;21176987;28;20194;-70
2022/10/07 01:03:08;;;;;;;0.20;0.00;;;18.10;99.90;;;;;;21175562;28;20223;-71
2022/10/07 01:13:17;;;;;;;0.20;0.00;;;18.00;99.90;;;;;;21170222;28;20418;-70
2022/10/07 01:23:44;;;;;;;0.20;0.00;;;17.90;99.90;;;;;;21156140;28;20227;-71
2022/10/07 01:33:52;;;;;;;0.20;0.00;;;18.00;99.90;;;;;;21173424;28;20222;-71
2022/10/07 01:43:59;;;;;;;0.20;0.00;;;18.30;99.90;;;;;;21172388;28;20220;-71
2022/10/07 01:54:17;;;;;;;0.20;0.00;;;18.40;99.90;;;;;;21167093;28;20827;-71
2022/10/07 02:04:37;;;;;;;0.20;0.00;;;18.40;99.90;;;;;;21165960;28;20400;-71
2022/10/07 02:14:49;;;;;;;0.20;0.10;;;18.60;99.90;;;;;;21165049;28;20385;-71
2022/10/07 02:24:57;;;;;;;0.20;0.00;;;18.90;99.90;;;;;;21164870;28;20396;-71
2022/10/07 02:35:07;;;;;;;0.20;0.00;;;19.40;99.90;;;;;;21165406;28;20390;-70
2022/10/07 02:45:17;;;;;;;0.20;0.00;;;19.90;99.90;;;;;;21163678;28;20404;-71
2022/10/07 02:55:27;;;;;;;0.20;0.00;;;20.00;99.90;;;;;;21163121;28;20384;-71
2022/10/07 03:05:34;;;;;;;0.20;0.00;;;20.00;99.90;;;;;;21162563;28;20397;-71
2022/10/07 03:15:39;;;;;;;0.20;0.10;;;20.20;99.90;;;;;;21144622;28;20388;-71
2022/10/07 03:25:49;;;;;;;0.20;0.00;;;20.30;99.90;;;;;;21155362;28;20392;-70
2022/10/07 03:35:54;;;;;;;0.20;0.00;;;19.80;99.90;;;;;;21178939;28;20377;-71
2022/10/07 03:45:59;;;;;;;0.20;0.00;;;19.40;99.90;;;;;;21177504;28;20425;-70
2022/10/07 03:56:04;;;;;;;0.20;0.00;;;19.00;99.90;;;;;;21225047;28;20393;-70
2022/10/07 04:06:09;;;;;;;0.20;0.00;;;19.00;99.90;;;;;;21239590;28;20403;-71
2022/10/07 04:16:14;;;;;;;0.20;0.10;;;18.90;99.90;;;;;;21257923;28;20416;-70
2022/10/07 04:26:18;;;;;;;0.20;0.00;;;18.70;99.90;;;;;;21256614;28;20402;-70
2022/10/07 04:36:23;;;;;;;0.20;0.07;;;18.60;99.90;;;;;;21255510;28;20391;-70
2022/10/07 04:46:27;;;;;;;0.20;0.00;;;18.50;99.90;;;;;;21238780;28;20428;-70
2022/10/07 04:56:32;;;;;;;0.20;0.10;;;18.50;99.90;;;;;;21255751;28;20395;-70
2022/10/07 05:06:36;;;;;;;0.20;0.00;;;18.70;99.90;;;;;;21254163;28;20398;-69
2022/10/07 05:16:42;;;;;;;0.20;0.00;;;18.70;99.90;;;;;;21253267;28;20379;-70
2022/10/07 05:26:46;;;;;;;0.20;0.10;;;18.80;99.90;;;;;;21234991;28;20428;-71
2022/10/07 05:36:51;;;;;;;0.20;0.10;;;18.40;99.90;;;;;;21250990;28;20390;-69
2022/10/07 05:46:54;;;;;;;0.20;0.00;;;18.50;99.90;;;;;;21246550;28;20390;-70
2022/10/07 05:57:00;;;;;;;0.20;0.00;;;18.70;99.90;;;;;;21244618;28;20470;-69
2022/10/07 06:07:04;;;;;;;0.20;0.00;;;18.50;99.90;;;;;;21241922;28;20436;-67
2022/10/07 06:17:09;;;;;;;0.20;0.00;;;18.30;99.90;;;;;;21229137;28;20431;-69
2022/10/07 06:27:13;;;;;;;0.20;0.00;;;18.00;99.90;;;;;;21245458;28;20398;-68
2022/10/07 06:37:19;;;;;;;0.20;0.00;;;18.20;99.90;;;;;;21226125;28;20391;-69
2022/10/07 06:47:23;;;;;;;0.20;0.00;;;18.20;99.90;;;;;;21245236;28;20430;-70
2022/10/07 06:57:28;;;;;;;0.20;0.00;;;18.20;99.90;;;;;;21242533;28;20447;-68
2022/10/07 07:07:48;;;;;;;0.20;0.00;;;18.00;99.90;;;;;;21241981;28;20474;-69
2022/10/07 07:17:54;;;;;;;0.20;0.10;;;18.10;99.90;;;;;;21243046;28;20405;-69
2022/10/07 07:28:00;;;;;;;0.20;0.00;;;18.00;99.90;;;;;;21244121;28;20406;-70
2022/10/07 07:38:05;;;;;;;0.20;0.00;;;17.90;99.90;;;;;;21242496;28;20387;-69
2022/10/07 07:48:09;;;;;;;0.20;0.10;;;18.00;99.90;;;;;;21243558;28;20428;-71
2022/10/07 07:58:14;;;;;;;0.20;0.00;;;18.10;99.90;;;;;;21243285;28;20390;-68
2022/10/07 08:08:18;;;;;;;0.20;0.00;;;18.10;99.90;;;;;;21226223;28;20436;-70
2022/10/07 08:18:23;;;;;;;0.20;0.10;;;18.10;99.90;;;;;;21236527;28;20472;-70
2022/10/07 08:28:27;;;;;;;0.20;0.00;;;18.30;99.90;;;;;;21252864;28;20403;-67
2022/10/07 08:38:34;;;;;;;0.20;0.00;;;18.40;99.90;;;;;;21253808;28;20380;-69
2022/10/07 08:48:39;;;;;;;0.20;0.00;;;18.40;99.90;;;;;;21251109;28;20432;-70
2022/10/07 08:58:53;;;;;;;0.20;0.00;;;18.30;99.90;;;;;;21232718;28;20390;-69
2022/10/07 09:09:02;;;;;;;0.20;0.00;;;18.20;99.90;;;;;;21237558;28;20255;-70
2022/10/07 09:19:15;;;;;;;0.20;0.00;;;18.50;99.90;;;;;;21236129;28;20190;-70
2022/10/07 09:29:22;;;;;;;0.20;0.00;;;18.60;99.90;;;;;;21220913;28;20191;-71
2022/10/07 09:39:27;;;;;;;0.20;0.00;;;18.60;99.90;;;;;;21255033;28;20212;-69
2022/10/07 09:49:41;;;;;;;0.20;0.10;;;18.60;99.90;;;;;;21253793;28;20195;-69
2022/10/07 09:59:46;;;;;;;0.20;0.00;;;18.70;99.90;;;;;;21230900;28;20483;-69
2022/10/07 10:09:51;;;;;;;0.20;0.00;;;18.80;99.90;;;;;;21248659;28;20410;-69
2022/10/07 10:20:27;;;;;;;0.20;0.00;;;18.70;99.90;;;;;;21251470;28;20222;-69
2022/10/07 10:30:31;;;;;;;0.20;0.00;;;18.70;99.90;;;;;;21229173;28;20386;-69
2022/10/07 10:40:40;;;;;;;0.20;0.00;;;18.80;99.90;;;;;;21228521;28;20440;-69
2022/10/07 10:50:52;;;;;;;0.20;0.00;;;19.00;99.90;;;;;;21245136;28;20391;-70
2022/10/07 11:01:04;;;;;;;0.20;0.00;;;19.00;99.90;;;;;;21226885;28;20398;-69
2022/10/07 11:11:11;;;;;;;0.20;0.00;;;19.20;99.90;;;;;;21243199;28;20410;-69
2022/10/07 11:21:20;;;;;;;0.20;0.00;;;19.10;99.90;;;;;;21173587;28;20412;-72
2022/10/07 11:31:31;;;;;;;0.20;0.00;;;19.00;99.90;;;;;;21184884;28;20387;-71
2022/10/07 11:41:45;;;;;;;0.20;0.00;;;19.20;99.90;;;;;;21244088;28;20399;-71
2022/10/07 11:51:56;;;;;;;0.20;0.00;;;19.40;99.90;;;;;;21257948;28;20416;-70
2022/10/07 12:02:02;;;;;;;0.20;0.00;;;19.80;99.90;;;;;;21254361;28;20387;-71
2022/10/07 12:12:13;;;;;;;0.20;0.00;;;19.80;99.90;;;;;;21253498;28;20436;-70
2022/10/07 12:22:18;;;;;;;0.20;0.07;;;19.80;99.90;;;;;;21229415;28;20912;-72
2022/10/07 12:33:03;;;;;;;0.20;0.00;;;20.30;99.90;;;;;;21233629;28;20421;-72
2022/10/07 12:43:22;;;;;;;0.20;0.00;;;20.90;99.90;;;;;;21215229;28;20410;-72
2022/10/07 12:53:29;;;;;;;0.20;0.10;;;21.20;99.90;;;;;;21246684;28;20391;-72
2022/10/07 13:04:05;;;;;;;0.20;0.00;;;20.80;99.90;;;;;;21247663;28;20406;-72
2022/10/07 13:14:15;;;;;;;0.20;0.00;;;20.70;99.90;;;;;;21185645;28;20396;-72
2022/10/07 13:24:24;;;;;;;0.20;0.00;;;21.00;99.90;;;;;;21167125;28;20411;-72
2022/10/07 13:34:30;;;;;;;0.20;0.00;;;21.60;99.90;;;;;;21165361;28;20484;-72
2022/10/07 13:44:36;;;;;;;0.20;0.00;;;22.20;99.90;;;;;;21163365;28;20400;-69
2022/10/07 13:54:40;;;;;;;0.20;0.00;;;22.30;99.90;;;;;;21145498;28;20400;-71
2022/10/07 14:04:58;;;;;;;0.20;0.00;;;22.90;99.90;;;;;;21160051;28;20389;-69
2022/10/07 14:15:05;;;;;;;0.20;0.00;;;24.00;99.90;;;;;;21160549;28;20419;-72
2022/10/07 14:25:19;;;;;;;0.20;0.00;;;23.20;99.90;;;;;;21147203;28;20399;-71
2022/10/07 14:35:23;;;;;;;0.20;0.00;;;22.20;99.90;;;;;;21241819;28;20386;-71
2022/10/07 14:45:28;;;;;;;0.20;0.00;;;21.80;99.90;;;;;;21239982;28;20394;-70
2022/10/07 14:55:32;;;;;;;0.20;0.00;;;21.90;99.90;;;;;;21222909;28;20823;-70
2022/10/07 15:05:39;;;;;;;0.20;0.00;;;22.20;99.90;;;;;;21220783;28;20419;-70
2022/10/07 15:15:44;;;;;;;0.20;0.00;;;23.20;99.90;;;;;;21141851;28;20395;-72
2022/10/07 15:25:51;;;;;;;0.20;0.00;;;24.00;99.90;;;;;;21170209;28;20396;-71
2022/10/07 15:35:55;;;;;;;0.20;0.00;;;24.00;99.90;;;;;;21169677;28;20395;-69
2022/10/07 15:46:00;;;;;;;0.20;0.00;;;24.50;99.90;;;;;;21151196;28;20393;-69
2022/10/07 15:56:06;;;;;;;0.20;0.00;;;23.60;99.90;;;;;;21168277;28;20418;-69
2022/10/07 16:06:14;;;;;;;0.20;0.00;;;23.40;99.90;;;;;;21167543;28;20437;-70
2022/10/07 16:16:21;;;;;;;0.20;0.00;;;23.20;99.90;;;;;;21165734;28;20401;-70
2022/10/07 16:26:29;;;;;;;0.20;0.00;;;22.60;99.90;;;;;;21165603;28;20448;-71
2022/10/07 16:36:34;;;;;;;0.20;0.00;;;22.30;99.90;;;;;;21164789;28;20397;-71
2022/10/07 16:46:40;;;;;;;0.20;0.00;;;22.40;99.90;;;;;;21224943;28;20402;-70
2022/10/07 16:56:46;;;;;;;0.20;0.00;;;22.30;99.90;;;;;;21245094;28;20394;-69
2022/10/07 17:06:52;;;;;;;0.20;0.00;;;22.10;99.90;;;;;;21244579;28;20401;-69
2022/10/07 17:16:57;;;;;;;0.20;0.00;;;21.90;99.90;;;;;;21217818;28;20378;-70
2022/10/07 17:27:02;;;;;;;0.20;0.00;;;21.70;99.90;;;;;;21204586;28;20398;-70
2022/10/07 17:37:07;;;;;;;0.20;0.00;;;21.60;99.90;;;;;;21236366;28;20390;-70
2022/10/07 17:47:12;;;;;;;0.20;0.00;;;21.50;99.90;;;;;;21242639;28;20403;-70
2022/10/07 17:57:16;;;;;;;0.20;0.00;;;21.50;99.90;;;;;;21226508;28;20379;-72
2022/10/07 18:07:21;;;;;;;0.20;0.00;;;21.30;99.90;;;;;;21243276;28;20412;-71
2022/10/07 18:17:26;;;;;;;0.20;0.00;;;21.10;99.90;;;;;;21239763;28;20393;-72
2022/10/07 18:27:31;;;;;;;0.20;0.00;;;21.20;99.90;;;;;;21243974;28;20390;-72
2022/10/07 18:37:35;;;;;;;0.20;0.00;;;21.30;99.90;;;;;;21239477;28;20425;-72
2022/10/07 18:47:40;;;;;;;0.20;0.00;;;21.20;99.90;;;;;;21242418;28;20979;-72
2022/10/07 18:57:44;;;;;;;0.20;0.00;;;21.40;99.90;;;;;;21234902;28;20476;-72
2022/10/07 19:07:49;;;;;;;0.20;0.00;;;21.50;99.90;;;;;;21238999;28;20398;-73
2022/10/07 19:17:53;;;;;;;0.20;0.00;;;21.60;99.90;;;;;;21239484;28;20408;-71
2022/10/07 19:27:58;;;;;;;0.20;0.00;;;21.30;99.90;;;;;;21238968;28;20410;-72
2022/10/07 19:38:02;;;;;;;0.20;0.00;;;21.20;99.90;;;;;;21147632;28;20392;-72
2022/10/07 19:48:11;;;;;;;0.20;0.00;;;21.20;99.90;;;;;;21231991;28;20390;-70
2022/10/07 19:58:16;;;;;;;0.20;0.00;;;20.80;99.90;;;;;;21235418;28;20383;-71
2022/10/07 20:08:22;;;;;;;0.20;0.00;;;20.70;99.90;;;;;;21246413;28;20405;-70
2022/10/07 20:18:25;;;;;;;0.20;0.00;;;20.60;99.90;;;;;;21238965;28;20383;-70
2022/10/07 20:28:30;;;;;;;0.20;0.10;;;20.50;99.90;;;;;;21247919;28;20403;-71
2022/10/07 20:48:54;;;;;;;0.20;0.00;;;20.80;99.90;;;;;;21235371;28;20410;-71
2022/10/07 20:58:58;;;;;;;0.20;0.00;;;21.00;99.90;;;;;;21235474;28;20520;-70
2022/10/07 21:09:03;;;;;;;0.20;0.00;;;20.80;99.90;;;;;;21235135;28;20418;-71
2022/10/07 21:19:07;;;;;;;0.20;0.10;;;20.70;99.90;;;;;;21233922;28;20389;-72
2022/10/07 21:29:13;;;;;;;0.20;0.10;;;20.50;99.90;;;;;;21251723;28;20451;-71
2022/10/07 21:39:17;;;;;;;0.20;0.00;;;20.50;99.90;;;;;;21242386;28;21370;-70
2022/10/07 21:49:22;;;;;;;0.20;0.00;;;20.50;99.90;;;;;;21250042;28;20395;-70
2022/10/07 21:59:25;;;;;;;0.20;0.00;;;21.00;99.90;;;;;;21249371;28;20409;-71
2022/10/07 22:09:30;;;;;;;0.20;0.00;;;20.70;99.90;;;;;;21248439;28;20424;-70
2022/10/07 22:19:34;;;;;;;0.20;0.00;;;20.30;99.90;;;;;;21229582;28;20399;-70
2022/10/07 22:29:39;;;;;;;0.20;0.00;;;19.70;99.90;;;;;;21201372;28;20434;-69
2022/10/07 22:39:43;;;;;;;0.20;0.00;;;19.40;99.90;;;;;;21145414;28;20388;-69
2022/10/07 22:49:48;;;;;;;0.20;0.00;;;19.30;99.90;;;;;;21162522;28;20410;-69
2022/10/07 22:59:52;;;;;;;0.20;0.00;;;19.10;99.90;;;;;;21161599;28;20417;-70
2022/10/07 23:09:57;;;;;;;0.20;0.07;;;19.00;99.90;;;;;;21187487;28;20406;-69
2022/10/07 23:20:02;;;;;;;0.20;0.00;;;19.20;99.90;;;;;;21245742;28;20387;-70
2022/10/07 23:30:09;;;;;;;0.20;0.00;;;19.20;99.90;;;;;;21160467;28;20395;-71
2022/10/07 23:40:13;;;;;;;0.20;0.00;;;19.20;99.90;;;;;;21234566;28;20408;-70
2022/10/07 23:50:19;;;;;;;0.20;0.00;;;18.90;99.90;;;;;;21261535;28;20432;-69
